sensor_id;sensor_type;location;lat;lon;timestamp;P1;durP1;ratioP1;P2;durP2;ratioP2
42668;SDS011;29384;42.028;21.388;2023-04-03T00:02:11;8.43;;;4.45;;
42668;SDS011;29384;42.028;21.388;2023-04-03T00:04:36;7.03;;;3.95;;
42668;SDS011;29384;42.028;21.388;2023-04-03T00:10:04;5.63;;;3.17;;
42668;SDS011;29384;42.028;21.388;2023-04-03T00:12:30;2.20;;;1.73;;
42668;SDS011;29384;42.028;21.388;2023-04-03T00:14:55;6.45;;;3.58;;
42668;SDS011;29384;42.028;21.388;2023-04-03T00:17:20;3.55;;;3.25;;
42668;SDS011;29384;42.028;21.388;2023-04-03T00:19:46;4.90;;;3.50;;
42668;SDS011;29384;42.028;21.388;2023-04-03T00:25:14;4.38;;;3.58;;
42668;SDS011;29384;42.028;21.388;2023-04-03T00:27:39;9.15;;;3.90;;
42668;SDS011;29384;42.028;21.388;2023-04-03T00:30:05;3.60;;;3.22;;
42668;SDS011;29384;42.028;21.388;2023-04-03T00:32:31;6.75;;;3.17;;
42668;SDS011;29384;42.028;21.388;2023-04-03T00:34:57;5.65;;;2.60;;
42668;SDS011;29384;42.028;21.388;2023-04-03T00:40:25;5.07;;;2.53;;
42668;SDS011;29384;42.028;21.388;2023-04-03T00:42:52;4.47;;;3.40;;
42668;SDS011;29384;42.028;21.388;2023-04-03T00:47:48;6.45;;;3.63;;
42668;SDS011;29384;42.028;21.388;2023-04-03T00:50:14;5.47;;;4.40;;
42668;SDS011;29384;42.028;21.388;2023-04-03T00:52:39;4.55;;;4.10;;
42668;SDS011;29384;42.028;21.388;2023-04-03T00:55:05;8.63;;;4.75;;
42668;SDS011;29384;42.028;21.388;2023-04-03T00:57:31;5.57;;;3.78;;
42668;SDS011;29384;42.028;21.388;2023-04-03T00:59:59;3.38;;;2.70;;
42668;SDS011;29384;42.028;21.388;2023-04-03T01:02:26;3.95;;;2.83;;
42668;SDS011;29384;42.028;21.388;2023-04-03T01:04:51;7.38;;;2.92;;
42668;SDS011;29384;42.028;21.388;2023-04-03T01:10:19;5.72;;;2.28;;
42668;SDS011;29384;42.028;21.388;2023-04-03T01:12:46;6.05;;;3.80;;
42668;SDS011;29384;42.028;21.388;2023-04-03T01:15:13;8.85;;;4.68;;
42668;SDS011;29384;42.028;21.388;2023-04-03T01:26:12;7.60;;;5.05;;
42668;SDS011;29384;42.028;21.388;2023-04-03T01:28:37;17.38;;;7.65;;
42668;SDS011;29384;42.028;21.388;2023-04-03T01:33:47;6.30;;;4.10;;
42668;SDS011;29384;42.028;21.388;2023-04-03T01:36:19;2.70;;;2.08;;
42668;SDS011;29384;42.028;21.388;2023-04-03T01:38:45;5.18;;;1.92;;
42668;SDS011;29384;42.028;21.388;2023-04-03T01:41:11;1.55;;;1.45;;
42668;SDS011;29384;42.028;21.388;2023-04-03T01:43:36;6.63;;;1.83;;
42668;SDS011;29384;42.028;21.388;2023-04-03T01:46:01;2.50;;;1.80;;
42668;SDS011;29384;42.028;21.388;2023-04-03T01:48:26;2.72;;;2.53;;
42668;SDS011;29384;42.028;21.388;2023-04-03T01:50:52;7.63;;;2.53;;
42668;SDS011;29384;42.028;21.388;2023-04-03T01:53:17;14.07;;;2.47;;
42668;SDS011;29384;42.028;21.388;2023-04-03T01:55:42;2.40;;;2.30;;
42668;SDS011;29384;42.028;21.388;2023-04-03T01:58:08;1.23;;;1.23;;
42668;SDS011;29384;42.028;21.388;2023-04-03T02:00:33;15.00;;;1.48;;
42668;SDS011;29384;42.028;21.388;2023-04-03T02:02:58;3.40;;;1.73;;
42668;SDS011;29384;42.028;21.388;2023-04-03T02:05:24;1.73;;;1.15;;
42668;SDS011;29384;42.028;21.388;2023-04-03T02:10:52;1.80;;;1.70;;
42668;SDS011;29384;42.028;21.388;2023-04-03T02:13:18;12.00;;;2.63;;
42668;SDS011;29384;42.028;21.388;2023-04-03T02:15:43;2.05;;;1.73;;
42668;SDS011;29384;42.028;21.388;2023-04-03T02:18:10;2.35;;;1.98;;
42668;SDS011;29384;42.028;21.388;2023-04-03T02:20:36;2.08;;;1.95;;
42668;SDS011;29384;42.028;21.388;2023-04-03T02:26:05;2.15;;;1.60;;
42668;SDS011;29384;42.028;21.388;2023-04-03T02:28:31;1.67;;;1.58;;
42668;SDS011;29384;42.028;21.388;2023-04-03T02:30:56;1.63;;;1.52;;
42668;SDS011;29384;42.028;21.388;2023-04-03T02:33:21;1.38;;;1.30;;
42668;SDS011;29384;42.028;21.388;2023-04-03T02:35:47;1.15;;;1.15;;
42668;SDS011;29384;42.028;21.388;2023-04-03T02:38:18;1.52;;;1.42;;
42668;SDS011;29384;42.028;21.388;2023-04-03T02:40:43;5.07;;;1.27;;
42668;SDS011;29384;42.028;21.388;2023-04-03T02:43:08;1.50;;;1.40;;
42668;SDS011;29384;42.028;21.388;2023-04-03T02:45:34;3.63;;;1.30;;
42668;SDS011;29384;42.028;21.388;2023-04-03T02:47:59;1.02;;;1.02;;
42668;SDS011;29384;42.028;21.388;2023-04-03T02:50:24;4.15;;;1.80;;
42668;SDS011;29384;42.028;21.388;2023-04-03T02:55:52;3.05;;;1.40;;
42668;SDS011;29384;42.028;21.388;2023-04-03T02:58:18;2.28;;;1.55;;
42668;SDS011;29384;42.028;21.388;2023-04-03T03:00:43;3.42;;;1.40;;
42668;SDS011;29384;42.028;21.388;2023-04-03T03:03:08;1.73;;;1.63;;
42668;SDS011;29384;42.028;21.388;2023-04-03T03:05:34;1.05;;;1.05;;
42668;SDS011;29384;42.028;21.388;2023-04-03T03:11:02;1.85;;;1.48;;
42668;SDS011;29384;42.028;21.388;2023-04-03T03:13:27;0.95;;;0.95;;
42668;SDS011;29384;42.028;21.388;2023-04-03T03:15:52;1.17;;;1.17;;
42668;SDS011;29384;42.028;21.388;2023-04-03T03:18:18;1.50;;;1.40;;
42668;SDS011;29384;42.028;21.388;2023-04-03T03:20:43;1.38;;;1.30;;
42668;SDS011;29384;42.028;21.388;2023-04-03T03:26:11;2.15;;;1.45;;
42668;SDS011;29384;42.028;21.388;2023-04-03T03:28:37;7.93;;;2.08;;
42668;SDS011;29384;42.028;21.388;2023-04-03T03:31:02;3.63;;;1.50;;
42668;SDS011;29384;42.028;21.388;2023-04-03T03:33:28;1.15;;;1.15;;
42668;SDS011;29384;42.028;21.388;2023-04-03T03:35:53;1.92;;;1.80;;
42668;SDS011;29384;42.028;21.388;2023-04-03T03:41:22;1.80;;;1.70;;
42668;SDS011;29384;42.028;21.388;2023-04-03T03:43:47;2.40;;;2.22;;
42668;SDS011;29384;42.028;21.388;2023-04-03T03:46:13;3.08;;;2.67;;
42668;SDS011;29384;42.028;21.388;2023-04-03T03:48:38;2.15;;;2.05;;
42668;SDS011;29384;42.028;21.388;2023-04-03T03:51:03;1.90;;;1.77;;
42668;SDS011;29384;42.028;21.388;2023-04-03T03:56:32;1.83;;;1.73;;
42668;SDS011;29384;42.028;21.388;2023-04-03T03:58:57;1.90;;;1.80;;
42668;SDS011;29384;42.028;21.388;2023-04-03T04:01:23;1.48;;;1.35;;
42668;SDS011;29384;42.028;21.388;2023-04-03T04:03:48;4.55;;;1.83;;
42668;SDS011;29384;42.028;21.388;2023-04-03T04:06:13;1.95;;;1.80;;
42668;SDS011;29384;42.028;21.388;2023-04-03T04:08:39;1.77;;;1.67;;
42668;SDS011;29384;42.028;21.388;2023-04-03T04:11:04;2.67;;;2.10;;
42668;SDS011;29384;42.028;21.388;2023-04-03T04:13:30;3.63;;;2.22;;
42668;SDS011;29384;42.028;21.388;2023-04-03T04:15:55;3.25;;;2.80;;
42668;SDS011;29384;42.028;21.388;2023-04-03T04:18:20;2.88;;;2.45;;
42668;SDS011;29384;42.028;21.388;2023-04-03T04:20:47;4.60;;;2.53;;
42668;SDS011;29384;42.028;21.388;2023-04-03T04:26:15;3.00;;;2.78;;
42668;SDS011;29384;42.028;21.388;2023-04-03T04:28:41;3.25;;;2.42;;
42668;SDS011;29384;42.028;21.388;2023-04-03T04:31:06;2.85;;;2.63;;
42668;SDS011;29384;42.028;21.388;2023-04-03T04:33:31;5.88;;;2.80;;
42668;SDS011;29384;42.028;21.388;2023-04-03T04:35:57;3.03;;;2.80;;
42668;SDS011;29384;42.028;21.388;2023-04-03T04:41:25;3.70;;;3.13;;
42668;SDS011;29384;42.028;21.388;2023-04-03T04:43:51;2.80;;;2.60;;
42668;SDS011;29384;42.028;21.388;2023-04-03T04:46:16;4.00;;;3.30;;
42668;SDS011;29384;42.028;21.388;2023-04-03T04:48:42;12.68;;;2.80;;
42668;SDS011;29384;42.028;21.388;2023-04-03T04:51:07;2.75;;;2.55;;
42668;SDS011;29384;42.028;21.388;2023-04-03T04:56:35;4.78;;;3.15;;
42668;SDS011;29384;42.028;21.388;2023-04-03T04:59:00;2.53;;;2.33;;
42668;SDS011;29384;42.028;21.388;2023-04-03T05:01:26;3.92;;;3.08;;
42668;SDS011;29384;42.028;21.388;2023-04-03T05:03:51;2.38;;;2.17;;
42668;SDS011;29384;42.028;21.388;2023-04-03T05:06:16;4.18;;;3.00;;
42668;SDS011;29384;42.028;21.388;2023-04-03T05:11:44;2.42;;;2.22;;
42668;SDS011;29384;42.028;21.388;2023-04-03T05:14:10;4.60;;;2.80;;
42668;SDS011;29384;42.028;21.388;2023-04-03T05:16:35;3.28;;;2.97;;
42668;SDS011;29384;42.028;21.388;2023-04-03T05:19:00;3.97;;;3.60;;
42668;SDS011;29384;42.028;21.388;2023-04-03T05:21:25;6.57;;;3.25;;
42668;SDS011;29384;42.028;21.388;2023-04-03T05:26:55;3.42;;;3.15;;
42668;SDS011;29384;42.028;21.388;2023-04-03T05:29:21;4.75;;;4.18;;
42668;SDS011;29384;42.028;21.388;2023-04-03T05:31:48;5.90;;;4.10;;
42668;SDS011;29384;42.028;21.388;2023-04-03T05:34:14;3.42;;;3.22;;
42668;SDS011;29384;42.028;21.388;2023-04-03T05:36:39;7.63;;;4.15;;
42668;SDS011;29384;42.028;21.388;2023-04-03T05:42:07;16.33;;;5.13;;
42668;SDS011;29384;42.028;21.388;2023-04-03T05:44:33;8.70;;;5.57;;
42668;SDS011;29384;42.028;21.388;2023-04-03T05:46:58;5.70;;;3.53;;
42668;SDS011;29384;42.028;21.388;2023-04-03T05:49:23;17.90;;;4.63;;
42668;SDS011;29384;42.028;21.388;2023-04-03T05:51:49;3.45;;;3.03;;
42668;SDS011;29384;42.028;21.388;2023-04-03T05:57:17;10.73;;;4.82;;
42668;SDS011;29384;42.028;21.388;2023-04-03T05:59:43;9.15;;;5.97;;
42668;SDS011;29384;42.028;21.388;2023-04-03T06:02:13;6.15;;;5.57;;
42668;SDS011;29384;42.028;21.388;2023-04-03T06:04:38;14.07;;;6.88;;
42668;SDS011;29384;42.028;21.388;2023-04-03T06:07:04;10.55;;;6.85;;
42668;SDS011;29384;42.028;21.388;2023-04-03T06:09:29;17.02;;;7.05;;
42668;SDS011;29384;42.028;21.388;2023-04-03T06:11:55;12.20;;;6.95;;
42668;SDS011;29384;42.028;21.388;2023-04-03T06:14:21;7.97;;;6.53;;
42668;SDS011;29384;42.028;21.388;2023-04-03T06:16:46;8.98;;;5.32;;
42668;SDS011;29384;42.028;21.388;2023-04-03T06:19:12;13.80;;;5.90;;
42668;SDS011;29384;42.028;21.388;2023-04-03T06:21:37;19.27;;;5.97;;
42668;SDS011;29384;42.028;21.388;2023-04-03T06:27:05;10.75;;;5.72;;
42668;SDS011;29384;42.028;21.388;2023-04-03T06:29:31;8.65;;;6.82;;
42668;SDS011;29384;42.028;21.388;2023-04-03T06:31:56;9.32;;;5.82;;
42668;SDS011;29384;42.028;21.388;2023-04-03T06:34:22;13.18;;;6.60;;
42668;SDS011;29384;42.028;21.388;2023-04-03T06:36:47;19.25;;;6.88;;
42668;SDS011;29384;42.028;21.388;2023-04-03T06:42:16;14.60;;;6.72;;
42668;SDS011;29384;42.028;21.388;2023-04-03T06:44:41;11.43;;;6.65;;
42668;SDS011;29384;42.028;21.388;2023-04-03T06:47:09;23.40;;;8.20;;
42668;SDS011;29384;42.028;21.388;2023-04-03T06:49:34;16.92;;;6.90;;
42668;SDS011;29384;42.028;21.388;2023-04-03T06:52:01;10.38;;;6.95;;
42668;SDS011;29384;42.028;21.388;2023-04-03T06:57:29;7.40;;;6.00;;
42668;SDS011;29384;42.028;21.388;2023-04-03T06:59:55;15.57;;;4.78;;
42668;SDS011;29384;42.028;21.388;2023-04-03T07:02:20;11.38;;;5.55;;
42668;SDS011;29384;42.028;21.388;2023-04-03T07:04:45;9.18;;;5.25;;
42668;SDS011;29384;42.028;21.388;2023-04-03T07:07:11;19.60;;;4.72;;
42668;SDS011;29384;42.028;21.388;2023-04-03T07:12:39;5.03;;;4.60;;
42668;SDS011;29384;42.028;21.388;2023-04-03T07:15:05;4.68;;;4.18;;
42668;SDS011;29384;42.028;21.388;2023-04-03T07:17:30;15.18;;;4.78;;
42668;SDS011;29384;42.028;21.388;2023-04-03T07:19:56;4.13;;;3.50;;
42668;SDS011;29384;42.028;21.388;2023-04-03T07:22:21;10.70;;;3.90;;
42668;SDS011;29384;42.028;21.388;2023-04-03T07:24:46;5.43;;;3.55;;
42668;SDS011;29384;42.028;21.388;2023-04-03T07:27:12;14.88;;;4.35;;
42668;SDS011;29384;42.028;21.388;2023-04-03T07:29:37;15.90;;;4.82;;
42668;SDS011;29384;42.028;21.388;2023-04-03T07:32:03;10.98;;;4.15;;
42668;SDS011;29384;42.028;21.388;2023-04-03T07:34:29;8.23;;;4.80;;
42668;SDS011;29384;42.028;21.388;2023-04-03T07:36:55;4.85;;;3.88;;
42668;SDS011;29384;42.028;21.388;2023-04-03T07:42:24;7.72;;;4.90;;
42668;SDS011;29384;42.028;21.388;2023-04-03T07:44:49;16.13;;;5.53;;
42668;SDS011;29384;42.028;21.388;2023-04-03T07:47:15;6.40;;;4.25;;
42668;SDS011;29384;42.028;21.388;2023-04-03T07:49:42;11.25;;;6.10;;
42668;SDS011;29384;42.028;21.388;2023-04-03T07:52:08;14.75;;;5.93;;
42668;SDS011;29384;42.028;21.388;2023-04-03T07:57:37;11.15;;;4.45;;
42668;SDS011;29384;42.028;21.388;2023-04-03T08:00:03;15.05;;;5.55;;
42668;SDS011;29384;42.028;21.388;2023-04-03T08:02:28;18.58;;;6.00;;
42668;SDS011;29384;42.028;21.388;2023-04-03T08:04:53;17.42;;;4.57;;
42668;SDS011;29384;42.028;21.388;2023-04-03T08:07:20;16.33;;;5.55;;
42668;SDS011;29384;42.028;21.388;2023-04-03T08:12:48;9.95;;;6.28;;
42668;SDS011;29384;42.028;21.388;2023-04-03T08:15:13;20.92;;;5.43;;
42668;SDS011;29384;42.028;21.388;2023-04-03T08:17:39;30.30;;;6.82;;
42668;SDS011;29384;42.028;21.388;2023-04-03T08:20:04;11.32;;;5.55;;
42668;SDS011;29384;42.028;21.388;2023-04-03T08:22:31;14.90;;;6.05;;
42668;SDS011;29384;42.028;21.388;2023-04-03T08:27:59;14.43;;;5.40;;
42668;SDS011;29384;42.028;21.388;2023-04-03T08:30:24;11.55;;;5.97;;
42668;SDS011;29384;42.028;21.388;2023-04-03T08:32:50;14.68;;;5.57;;
42668;SDS011;29384;42.028;21.388;2023-04-03T08:35:15;4.68;;;3.92;;
42668;SDS011;29384;42.028;21.388;2023-04-03T08:37:40;8.35;;;4.85;;
42668;SDS011;29384;42.028;21.388;2023-04-03T08:45:48;14.45;;;5.10;;
42668;SDS011;29384;42.028;21.388;2023-04-03T08:48:23;10.77;;;4.28;;
42668;SDS011;29384;42.028;21.388;2023-04-03T08:50:53;4.28;;;3.88;;
42668;SDS011;29384;42.028;21.388;2023-04-03T08:53:24;7.85;;;3.13;;
42668;SDS011;29384;42.028;21.388;2023-04-03T08:55:50;3.42;;;2.05;;
42668;SDS011;29384;42.028;21.388;2023-04-03T08:58:18;1.48;;;1.42;;
42668;SDS011;29384;42.028;21.388;2023-04-03T09:03:14;2.50;;;1.67;;
42668;SDS011;29384;42.028;21.388;2023-04-03T09:08:30;1.88;;;1.77;;
42668;SDS011;29384;42.028;21.388;2023-04-03T09:14:17;2.15;;;2.05;;
42668;SDS011;29384;42.028;21.388;2023-04-03T09:16:27;2.10;;;2.00;;
42668;SDS011;29384;42.028;21.388;2023-04-03T09:19:18;2.63;;;2.38;;
42668;SDS011;29384;42.028;21.388;2023-04-03T09:21:46;2.72;;;2.53;;
42668;SDS011;29384;42.028;21.388;2023-04-03T09:24:12;2.90;;;2.10;;
42668;SDS011;29384;42.028;21.388;2023-04-03T09:26:56;3.20;;;1.80;;
42668;SDS011;29384;42.028;21.388;2023-04-03T09:29:24;1.60;;;1.50;;
42668;SDS011;29384;42.028;21.388;2023-04-03T09:32:02;2.05;;;1.92;;
42668;SDS011;29384;42.028;21.388;2023-04-03T09:34:37;1.80;;;1.70;;
42668;SDS011;29384;42.028;21.388;2023-04-03T09:37:03;3.03;;;1.92;;
42668;SDS011;29384;42.028;21.388;2023-04-03T09:39:31;3.20;;;1.85;;
42668;SDS011;29384;42.028;21.388;2023-04-03T09:42:01;2.25;;;1.95;;
42668;SDS011;29384;42.028;21.388;2023-04-03T09:44:29;1.60;;;1.50;;
42668;SDS011;29384;42.028;21.388;2023-04-03T09:46:54;6.65;;;2.50;;
42668;SDS011;29384;42.028;21.388;2023-04-03T09:49:20;3.47;;;2.40;;
42668;SDS011;29384;42.028;21.388;2023-04-03T09:51:46;3.05;;;2.08;;
42668;SDS011;29384;42.028;21.388;2023-04-03T09:56:52;4.93;;;2.13;;
42668;SDS011;29384;42.028;21.388;2023-04-03T09:59:18;2.42;;;2.22;;
42668;SDS011;29384;42.028;21.388;2023-04-03T10:01:56;1.73;;;1.63;;
42668;SDS011;29384;42.028;21.388;2023-04-03T10:04:22;1.73;;;1.63;;
42668;SDS011;29384;42.028;21.388;2023-04-03T10:06:49;3.58;;;3.28;;
42668;SDS011;29384;42.028;21.388;2023-04-03T10:14:35;1.02;;;1.02;;
42668;SDS011;29384;42.028;21.388;2023-04-03T10:19:33;1.77;;;1.00;;
42668;SDS011;29384;42.028;21.388;2023-04-03T10:27:06;2.15;;;2.05;;
42668;SDS011;29384;42.028;21.388;2023-04-03T10:29:36;1.95;;;1.85;;
42668;SDS011;29384;42.028;21.388;2023-04-03T10:34:42;1.90;;;1.73;;
42668;SDS011;29384;42.028;21.388;2023-04-03T10:37:20;2.42;;;1.70;;
42668;SDS011;29384;42.028;21.388;2023-04-03T10:39:50;1.95;;;1.48;;
42668;SDS011;29384;42.028;21.388;2023-04-03T10:42:35;1.45;;;1.38;;
42668;SDS011;29384;42.028;21.388;2023-04-03T10:53:03;2.03;;;1.92;;
42668;SDS011;29384;42.028;21.388;2023-04-03T10:55:33;2.15;;;2.05;;
42668;SDS011;29384;42.028;21.388;2023-04-03T10:58:00;1.90;;;1.80;;
42668;SDS011;29384;42.028;21.388;2023-04-03T11:00:36;2.42;;;1.83;;
42668;SDS011;29384;42.028;21.388;2023-04-03T11:03:05;2.17;;;2.08;;
42668;SDS011;29384;42.028;21.388;2023-04-03T11:05:44;1.48;;;1.48;;
42668;SDS011;29384;42.028;21.388;2023-04-03T11:11:19;2.30;;;2.10;;
42668;SDS011;29384;42.028;21.388;2023-04-03T11:13:50;2.28;;;2.17;;
42668;SDS011;29384;42.028;21.388;2023-04-03T11:16:19;2.72;;;2.63;;
42668;SDS011;29384;42.028;21.388;2023-04-03T11:21:33;2.88;;;2.78;;
42668;SDS011;29384;42.028;21.388;2023-04-03T11:27:03;2.42;;;2.28;;
42668;SDS011;29384;42.028;21.388;2023-04-03T11:29:34;3.03;;;2.83;;
42668;SDS011;29384;42.028;21.388;2023-04-03T11:32:21;2.55;;;2.45;;
42668;SDS011;29384;42.028;21.388;2023-04-03T11:34:52;4.43;;;2.88;;
42668;SDS011;29384;42.028;21.388;2023-04-03T11:42:55;1.83;;;1.73;;
42668;SDS011;29384;42.028;21.388;2023-04-03T11:50:46;2.45;;;1.90;;
42668;SDS011;29384;42.028;21.388;2023-04-03T11:58:39;18.10;;;2.60;;
42668;SDS011;29384;42.028;21.388;2023-04-03T12:01:06;2.80;;;2.70;;
42668;SDS011;29384;42.028;21.388;2023-04-03T12:03:56;3.17;;;3.03;;
42668;SDS011;29384;42.028;21.388;2023-04-03T12:14:14;3.75;;;2.85;;
42668;SDS011;29384;42.028;21.388;2023-04-03T12:34:26;5.07;;;4.47;;
42668;SDS011;29384;42.028;21.388;2023-04-03T12:37:08;4.80;;;4.35;;
42668;SDS011;29384;42.028;21.388;2023-04-03T12:42:21;5.68;;;4.60;;
42668;SDS011;29384;42.028;21.388;2023-04-03T12:47:35;6.35;;;5.22;;
42668;SDS011;29384;42.028;21.388;2023-04-03T12:49:59;6.30;;;5.70;;
42668;SDS011;29384;42.028;21.388;2023-04-03T12:54:55;5.95;;;5.45;;
42668;SDS011;29384;42.028;21.388;2023-04-03T12:57:25;4.85;;;4.38;;
42668;SDS011;29384;42.028;21.388;2023-04-03T12:59:51;3.58;;;3.28;;
42668;SDS011;29384;42.028;21.388;2023-04-03T13:04:48;6.13;;;3.78;;
42668;SDS011;29384;42.028;21.388;2023-04-03T13:07:30;5.32;;;4.82;;
42668;SDS011;29384;42.028;21.388;2023-04-03T13:12:26;4.68;;;4.25;;
42668;SDS011;29384;42.028;21.388;2023-04-03T13:14:56;5.32;;;4.85;;
42668;SDS011;29384;42.028;21.388;2023-04-03T13:17:23;4.93;;;4.57;;
42668;SDS011;29384;42.028;21.388;2023-04-03T13:19:48;5.43;;;5.03;;
42668;SDS011;29384;42.028;21.388;2023-04-03T13:24:51;5.05;;;4.53;;
42668;SDS011;29384;42.028;21.388;2023-04-03T13:27:17;8.50;;;4.43;;
42668;SDS011;29384;42.028;21.388;2023-04-03T13:29:43;6.22;;;5.45;;
42668;SDS011;29384;42.028;21.388;2023-04-03T13:32:18;4.53;;;4.13;;
42668;SDS011;29384;42.028;21.388;2023-04-03T13:34:44;4.45;;;4.15;;
42668;SDS011;29384;42.028;21.388;2023-04-03T13:37:20;5.15;;;4.78;;
42668;SDS011;29384;42.028;21.388;2023-04-03T13:39:45;7.80;;;5.38;;
42668;SDS011;29384;42.028;21.388;2023-04-03T13:42:28;4.95;;;4.65;;
42668;SDS011;29384;42.028;21.388;2023-04-03T13:47:41;4.65;;;4.25;;
42668;SDS011;29384;42.028;21.388;2023-04-03T13:50:15;4.82;;;4.43;;
42668;SDS011;29384;42.028;21.388;2023-04-03T13:52:47;6.13;;;5.47;;
42668;SDS011;29384;42.028;21.388;2023-04-03T14:00:19;5.43;;;4.75;;
42668;SDS011;29384;42.028;21.388;2023-04-03T14:02:47;5.13;;;4.70;;
42668;SDS011;29384;42.028;21.388;2023-04-03T14:05:12;7.20;;;6.30;;
42668;SDS011;29384;42.028;21.388;2023-04-03T14:07:37;6.15;;;5.55;;
42668;SDS011;29384;42.028;21.388;2023-04-03T14:10:03;11.77;;;5.20;;
42668;SDS011;29384;42.028;21.388;2023-04-03T14:12:35;6.30;;;5.70;;
42668;SDS011;29384;42.028;21.388;2023-04-03T14:15:03;9.35;;;5.53;;
42668;SDS011;29384;42.028;21.388;2023-04-03T14:17:29;4.97;;;4.60;;
42668;SDS011;29384;42.028;21.388;2023-04-03T14:19:54;8.75;;;5.32;;
42668;SDS011;29384;42.028;21.388;2023-04-03T14:22:24;7.80;;;6.20;;
42668;SDS011;29384;42.028;21.388;2023-04-03T14:24:50;6.40;;;5.78;;
42668;SDS011;29384;42.028;21.388;2023-04-03T14:27:20;5.55;;;4.97;;
42668;SDS011;29384;42.028;21.388;2023-04-03T14:29:47;5.13;;;4.65;;
42668;SDS011;29384;42.028;21.388;2023-04-03T14:32:13;4.78;;;4.38;;
42668;SDS011;29384;42.028;21.388;2023-04-03T14:34:39;4.00;;;3.67;;
42668;SDS011;29384;42.028;21.388;2023-04-03T14:37:09;9.90;;;4.45;;
42668;SDS011;29384;42.028;21.388;2023-04-03T14:39:34;4.45;;;4.15;;
42668;SDS011;29384;42.028;21.388;2023-04-03T14:42:00;4.63;;;4.32;;
42668;SDS011;29384;42.028;21.388;2023-04-03T14:44:25;7.30;;;4.65;;
42668;SDS011;29384;42.028;21.388;2023-04-03T14:46:51;5.25;;;4.93;;
42668;SDS011;29384;42.028;21.388;2023-04-03T14:49:20;6.65;;;6.05;;
42668;SDS011;29384;42.028;21.388;2023-04-03T14:51:46;6.10;;;5.50;;
42668;SDS011;29384;42.028;21.388;2023-04-03T14:54:16;38.15;;;19.33;;
42668;SDS011;29384;42.028;21.388;2023-04-03T14:59:45;14.40;;;11.27;;
42668;SDS011;29384;42.028;21.388;2023-04-03T15:02:21;17.92;;;9.32;;
42668;SDS011;29384;42.028;21.388;2023-04-03T15:04:49;9.13;;;7.57;;
42668;SDS011;29384;42.028;21.388;2023-04-03T15:07:14;9.82;;;7.82;;
42668;SDS011;29384;42.028;21.388;2023-04-03T15:09:40;12.07;;;9.52;;
42668;SDS011;29384;42.028;21.388;2023-04-03T15:15:08;23.23;;;12.93;;
42668;SDS011;29384;42.028;21.388;2023-04-03T15:17:34;10.73;;;8.82;;
42668;SDS011;29384;42.028;21.388;2023-04-03T15:20:00;11.98;;;8.30;;
42668;SDS011;29384;42.028;21.388;2023-04-03T15:22:25;11.05;;;8.55;;
42668;SDS011;29384;42.028;21.388;2023-04-03T15:24:50;13.38;;;8.65;;
42668;SDS011;29384;42.028;21.388;2023-04-03T15:27:16;11.90;;;8.90;;
42668;SDS011;29384;42.028;21.388;2023-04-03T15:29:42;12.10;;;6.97;;
42668;SDS011;29384;42.028;21.388;2023-04-03T15:32:07;4.88;;;4.57;;
42668;SDS011;29384;42.028;21.388;2023-04-03T15:34:33;12.02;;;7.03;;
42668;SDS011;29384;42.028;21.388;2023-04-03T15:36:59;9.18;;;5.65;;
42668;SDS011;29384;42.028;21.388;2023-04-03T15:39:25;8.00;;;5.72;;
42668;SDS011;29384;42.028;21.388;2023-04-03T15:44:54;5.80;;;4.88;;
42668;SDS011;29384;42.028;21.388;2023-04-03T15:47:19;3.42;;;3.25;;
42668;SDS011;29384;42.028;21.388;2023-04-03T15:49:44;1.88;;;1.77;;
42668;SDS011;29384;42.028;21.388;2023-04-03T15:52:10;1.02;;;1.02;;
42668;SDS011;29384;42.028;21.388;2023-04-03T15:54:35;1.08;;;0.98;;
42668;SDS011;29384;42.028;21.388;2023-04-03T16:00:03;0.73;;;0.73;;
42668;SDS011;29384;42.028;21.388;2023-04-03T16:02:29;0.95;;;0.95;;
42668;SDS011;29384;42.028;21.388;2023-04-03T16:04:54;1.13;;;1.13;;
42668;SDS011;29384;42.028;21.388;2023-04-03T16:07:20;0.77;;;0.77;;
42668;SDS011;29384;42.028;21.388;2023-04-03T16:09:45;1.13;;;1.13;;
42668;SDS011;29384;42.028;21.388;2023-04-03T16:15:13;1.63;;;1.40;;
42668;SDS011;29384;42.028;21.388;2023-04-03T16:17:39;0.80;;;0.80;;
42668;SDS011;29384;42.028;21.388;2023-04-03T16:20:06;0.70;;;0.70;;
42668;SDS011;29384;42.028;21.388;2023-04-03T16:22:31;1.52;;;1.25;;
42668;SDS011;29384;42.028;21.388;2023-04-03T16:24:57;0.75;;;0.75;;
42668;SDS011;29384;42.028;21.388;2023-04-03T16:30:25;0.50;;;0.50;;
42668;SDS011;29384;42.028;21.388;2023-04-03T16:32:51;0.45;;;0.45;;
42668;SDS011;29384;42.028;21.388;2023-04-03T16:35:16;0.57;;;0.57;;
42668;SDS011;29384;42.028;21.388;2023-04-03T16:37:41;0.65;;;0.65;;
42668;SDS011;29384;42.028;21.388;2023-04-03T16:40:07;0.60;;;0.60;;
42668;SDS011;29384;42.028;21.388;2023-04-03T16:45:35;0.40;;;0.40;;
42668;SDS011;29384;42.028;21.388;2023-04-03T16:48:01;0.57;;;0.57;;
42668;SDS011;29384;42.028;21.388;2023-04-03T16:50:26;0.70;;;0.70;;
42668;SDS011;29384;42.028;21.388;2023-04-03T16:52:52;0.50;;;0.50;;
42668;SDS011;29384;42.028;21.388;2023-04-03T16:55:17;1.90;;;0.50;;
42668;SDS011;29384;42.028;21.388;2023-04-03T17:00:45;0.63;;;0.63;;
42668;SDS011;29384;42.028;21.388;2023-04-03T17:03:12;1.13;;;1.13;;
42668;SDS011;29384;42.028;21.388;2023-04-03T17:05:37;0.45;;;0.45;;
42668;SDS011;29384;42.028;21.388;2023-04-03T17:08:03;0.90;;;0.63;;
42668;SDS011;29384;42.028;21.388;2023-04-03T17:10:28;0.50;;;0.50;;
42668;SDS011;29384;42.028;21.388;2023-04-03T17:15:57;0.70;;;0.70;;
42668;SDS011;29384;42.028;21.388;2023-04-03T17:18:22;0.30;;;0.30;;
42668;SDS011;29384;42.028;21.388;2023-04-03T17:20:48;0.50;;;0.50;;
42668;SDS011;29384;42.028;21.388;2023-04-03T17:23:13;0.60;;;0.60;;
42668;SDS011;29384;42.028;21.388;2023-04-03T17:25:38;0.43;;;0.43;;
42668;SDS011;29384;42.028;21.388;2023-04-03T17:31:07;0.50;;;0.50;;
42668;SDS011;29384;42.028;21.388;2023-04-03T17:33:32;0.70;;;0.70;;
42668;SDS011;29384;42.028;21.388;2023-04-03T17:35:59;1.95;;;0.43;;
42668;SDS011;29384;42.028;21.388;2023-04-03T17:38:29;0.60;;;0.60;;
42668;SDS011;29384;42.028;21.388;2023-04-03T17:40:58;1.75;;;0.30;;
42668;SDS011;29384;42.028;21.388;2023-04-03T17:43:23;0.30;;;0.30;;
42668;SDS011;29384;42.028;21.388;2023-04-03T17:45:48;0.30;;;0.30;;
42668;SDS011;29384;42.028;21.388;2023-04-03T17:48:14;0.65;;;0.43;;
42668;SDS011;29384;42.028;21.388;2023-04-03T17:50:39;0.20;;;0.20;;
42668;SDS011;29384;42.028;21.388;2023-04-03T17:53:04;0.30;;;0.30;;
42668;SDS011;29384;42.028;21.388;2023-04-03T17:55:30;0.65;;;0.30;;
42668;SDS011;29384;42.028;21.388;2023-04-03T18:00:58;0.20;;;0.20;;
42668;SDS011;29384;42.028;21.388;2023-04-03T18:03:23;0.80;;;0.80;;
42668;SDS011;29384;42.028;21.388;2023-04-03T18:05:48;0.43;;;0.43;;
42668;SDS011;29384;42.028;21.388;2023-04-03T18:08:14;0.35;;;0.20;;
42668;SDS011;29384;42.028;21.388;2023-04-03T18:10:41;0.35;;;0.35;;
42668;SDS011;29384;42.028;21.388;2023-04-03T18:16:10;0.22;;;0.22;;
42668;SDS011;29384;42.028;21.388;2023-04-03T18:18:36;0.28;;;0.28;;
42668;SDS011;29384;42.028;21.388;2023-04-03T18:21:01;0.20;;;0.20;;
42668;SDS011;29384;42.028;21.388;2023-04-03T18:23:27;1.00;;;0.20;;
42668;SDS011;29384;42.028;21.388;2023-04-03T18:25:55;0.17;;;0.17;;
42668;SDS011;29384;42.028;21.388;2023-04-03T18:31:23;0.20;;;0.20;;
42668;SDS011;29384;42.028;21.388;2023-04-03T18:33:49;0.20;;;0.20;;
42668;SDS011;29384;42.028;21.388;2023-04-03T18:36:18;0.35;;;0.35;;
42668;SDS011;29384;42.028;21.388;2023-04-03T18:38:44;0.03;;;0.03;;